首页
METAR-TAF:

METAR-TAF

机场 :

Felker Army Airfield

Fort Eustis, 弗吉尼亚州, 美国

纬度: 37-08N, 经度: 076-37W, 海拔: 4米

当前天气观测

该预报发布于2小时和17分钟前的17:56 UTC
风速7节,风向东北
温度 25°C
湿度 83%
气压 1023 hPa
能見度: 16.1公里
阴天层高于1300英尺

METAR: KFAF 241756Z AUTO 05007KT 10SM OVC013 25/22 A3022 RMK AO2 SLP237 60000 T02500221 10250 20216 58004 $

时间: 16:13 (20:13 UTC)

预报

该预报发布于2小时和13分钟前的18:00 UTC
预报有效从24日的 18点(UTC)到 25日的 24点(UTC)
风速12节,风向
能見度: 8000
多云层高于1000英尺
小阵雨
成为
从 24日的 23点(UTC)到 24日的 24点(UTC)
风速6节,风向
能见度10公里或以上
多云层高于1000英尺
成为
从 25日的 14点(UTC)到 25日的 15点(UTC)
风速9节,风向
能見度: 8000
阴天层高于2000英尺
小阵雨
成为
从 25日的 17点(UTC)到 25日的 18点(UTC)
风速9节,风向南转南东
能見度: 2510
散云层高于2000英尺
多云层高于3000英尺

TAF: KFAF 241800Z 2418/2524 08012KT 8000 -SHRA BKN010 QNH3019INS BECMG 2423/2424 10006KT 9999 NSW BKN010 QNH3018INS BECMG 2514/2515 10009KT 8000 -SHRA OVC020 QNH3010INS BECMG 2517/2518 16009KT 9999 NSW SCT020 BKN030 QNH3015INS TX27/2518Z TN21/2510Z LAST NO AMDS AFT 2503 NEXT 2510

超过4000个机场的气象观测和天气预报(METAR&TAF报告)。

可查询的气象台以黄色和红色小点在地图上表示。

将鼠标移到小点上方,可查看气象台名称。

然后点击查看天气观测和预报。

如需切换地图:点击带黑十字的绿色按钮放大地图;点击带横线的绿色按钮缩小地图;或者点击绿色箭头查看邻近地区的地图。


METAR-TAF: